dilutedbile666's FFR replays

1 - 39
Song Results (Perf-Good-Avg-Miss-Boo) Max Combo Score Date
Exciting Hyper Highspeed Star v2 723 - 226 - 11 - 24 - 48 204 656,005 7/9/12
Reluctantly Accepting Temporary Overexhaustion 848 - 483 - 143 - 126 - 461 143 701,810 7/9/12
Hyper Pressure 978 - 118 - 4 - 11 - 17 566 1,132,820 7/8/12
Scavenger 602 - 118 - 13 - 7 - 33 203 564,435 12/2/11
The Games We Played, Part 2 610 - 77 - 3 - 3 - 1 690 1,045,890 11/27/11
MAX Forever 2,478 - 209 - 11 - 11 - 20 1,244 2,661,170 9/10/11
Air 1,685 - 227 - 18 - 10 - 32 641 1,627,425 9/8/11
The Prototype 1,109 - 147 - 11 - 4 - 22 519 1,168,300 9/8/11
Gradeus 1,331 - 145 - 11 - 18 - 52 340 1,105,910 9/8/11
A Beautiful Storm 641 - 82 - 2 - 5 - 14 446 819,380 9/3/11
Divinity 804 - 158 - 24 - 23 - 30 256 735,240 8/30/11
Dokudenpa 1,381 - 185 - 24 - 10 - 47 651 1,458,705 8/29/11
Crystal Wind 680 - 67 - 9 - 8 - 15 351 741,140 8/26/11
Sleet 542 - 154 - 21 - 8 - 20 353 691,725 8/25/11
The Games We Played, Part 2 578 - 106 - 8 - 1 - 0 692 1,039,180 8/25/11
The Games We Played, Part 5 1,038 - 201 - 12 - 13 - 13 423 1,045,545 8/25/11
The Games We Played, Part 4 972 - 124 - 9 - 19 - 15 357 920,005 8/25/11
Wild Sky 502 - 40 - 6 - 1 - 3 290 577,060 8/24/11
Washamanoose's OP 1,001 - 174 - 15 - 19 - 32 263 855,695 8/24/11
EternuS 1,170 - 23 - 1 - 0 - 0 1,194 1,843,880 8/10/11
Palindrome 359 - 70 - 6 - 2 - 1 354 570,390 8/9/11
Badinerie 464 - 41 - 0 - 5 - 7 295 559,785 8/2/11
Start Something 329 - 37 - 1 - 1 - 1 367 557,850 7/26/11
Moonbeam 852 - 31 - 2 - 0 - 2 885 1,362,195 7/26/11
MAX Forever 2,371 - 278 - 25 - 35 - 38 1,004 2,374,265 7/25/11
Etude To A Dragon 661 - 90 - 10 - 8 - 15 319 705,070 6/26/11
Sunny Starry Carnival 748 - 157 - 6 - 19 - 28 244 692,455 6/18/11
Destiny 572 - 38 - 2 - 0 - 9 612 936,980 6/4/11
Hardcore of the North 749 - 210 - 31 - 9 - 26 481 949,095 6/4/11
Carol Megamix 1,080 - 121 - 12 - 12 - 24 292 915,735 6/4/11
Uber Rave v2 910 - 93 - 5 - 18 - 21 453 973,350 6/4/11
Hyper Pressure 948 - 146 - 5 - 12 - 28 486 1,043,545 6/3/11
Ivaltek 877 - 189 - 30 - 19 - 81 220 748,465 6/3/11
Flight of the Bumblebee 493 - 252 - 22 - 95 - 57 113 424,070 5/30/11
Vertex BETA 1,299 - 338 - 17 - 101 - 35 270 1,046,325 1/5/11
CIA Rave 966 - 87 - 7 - 0 - 3 1,060 1,615,550 1/5/11
Electro Rush x8 682 - 98 - 6 - 1 - 3 779 1,181,010 1/5/11
Emerald Hill (Metaljonus Mix) 368 - 23 - 1 - 0 - 0 392 600,780 1/5/11
{Blaze} 1,215 - 129 - 13 - 15 - 12 687 1,386,550 1/5/11
1 - 39